Terminal Aerodrome Forecast
Issued by NWS

Home | Current Version | Previous Version | Text Only | Print | Product List | Glossary On
Versions: 1 2 3 4 5 6 7 8 9 10 11 12 13 14 15 16 17 18 19
000
FTUS43 KMQT 011455 AAA
TAFSAW
TAF AMD
KSAW 011455Z 0115/0212 21005KT 5SM BR BKN003
     FM011600 21007KT P6SM SCT006
     FM011700 22008KT P6SM FEW040
     FM011900 22009KT P6SM BKN090
     FM020100 00000KT P6SM SCT110
     FM020600 00000KT 3SM BR SCT150=

USA.gov is the U.S. government's official web portal to all federal, state and local government web resources and services.